createdAt,value
2022-11-02T00:01:42.700Z,48.25
2022-11-02T00:04:06.261Z,40.70
2022-11-02T00:06:29.889Z,60.60
2022-11-02T00:08:53.417Z,43.97
2022-11-02T00:11:17.034Z,48.38
2022-11-02T00:13:40.610Z,48.78
2022-11-02T00:16:05.546Z,45.47
2022-11-02T00:18:30.982Z,49.05
2022-11-02T00:20:54.828Z,52.67
2022-11-02T00:23:18.356Z,36.90
2022-11-02T00:25:48.724Z,51.75
2022-11-02T00:28:12.586Z,40.03
2022-11-02T00:30:36.185Z,52.60
2022-11-02T00:32:59.763Z,44.22
2022-11-02T00:35:24.806Z,46.08
2022-11-02T00:37:48.457Z,50.40
2022-11-02T00:40:14.274Z,49.22
2022-11-02T00:42:37.866Z,58.78
2022-11-02T00:45:01.711Z,41.90
2022-11-02T00:47:25.377Z,41.25
2022-11-02T00:49:50.455Z,45.47
2022-11-02T00:52:15.808Z,44.50
2022-11-02T00:54:42.908Z,42.35
2022-11-02T00:57:06.584Z,38.00
2022-11-02T00:59:30.206Z,50.72
2022-11-02T01:01:54.287Z,45.45
2022-11-02T01:04:18.622Z,57.95
2022-11-02T01:06:42.893Z,50.22
2022-11-02T01:09:07.997Z,38.08
2022-11-02T01:11:31.542Z,37.42
2022-11-02T01:13:55.440Z,43.53
2022-11-02T01:16:19.146Z,47.80
2022-11-02T01:18:43.685Z,40.00
2022-11-02T01:21:07.490Z,38.25
2022-11-02T01:23:33.903Z,41.28
2022-11-02T01:25:58.812Z,44.55
2022-11-02T01:28:22.482Z,41.75
2022-11-02T01:30:49.234Z,44.80
2022-11-02T01:33:12.981Z,36.20
2022-11-02T01:35:38.534Z,37.70
2022-11-02T01:38:02.434Z,43.78
2022-11-02T01:40:27.085Z,37.72
2022-11-02T01:42:52.085Z,38.83
2022-11-02T01:45:16.126Z,44.80
2022-11-02T01:47:42.444Z,37.60
2022-11-02T01:50:11.917Z,36.90
2022-11-02T01:52:38.422Z,31.40
2022-11-02T01:55:08.976Z,42.33
2022-11-02T01:57:35.217Z,42.65
2022-11-02T02:00:07.274Z,33.33
2022-11-02T02:02:46.306Z,36.15
2022-11-02T02:05:13.318Z,45.28
2022-11-02T02:07:40.081Z,42.53
2022-11-02T02:10:04.280Z,39.47
2022-11-02T02:12:32.120Z,34.90
2022-11-02T02:14:56.029Z,45.53
2022-11-02T02:17:33.180Z,40.90
2022-11-02T02:20:03.976Z,36.38
2022-11-02T02:23:16.729Z,39.20
2022-11-02T02:26:08.870Z,39.80
2022-11-02T02:28:42.780Z,39.87
2022-11-02T02:31:16.086Z,34.58
2022-11-02T02:33:47.880Z,41.72
2022-11-02T02:36:21.647Z,45.22
2022-11-02T02:38:49.817Z,31.60
2022-11-02T02:41:20.555Z,35.72
2022-11-02T02:43:51.275Z,42.05
2022-11-02T02:46:21.681Z,38.30
2022-11-02T02:48:47.860Z,41.90
2022-11-02T02:51:16.019Z,44.47
2022-11-02T02:53:44.914Z,39.17
2022-11-02T02:56:13.685Z,34.17
2022-11-02T02:58:43.888Z,30.33
2022-11-02T03:01:13.380Z,37.20
2022-11-02T03:03:37.442Z,27.63
2022-11-02T03:06:16.464Z,36.27
2022-11-02T03:08:50.428Z,34.30
2022-11-02T03:11:17.412Z,32.15
2022-11-02T03:14:02.426Z,29.67
2022-11-02T03:16:48.003Z,30.57
2022-11-02T03:19:24.092Z,31.60
2022-11-02T03:21:56.870Z,28.60
2022-11-02T03:24:28.609Z,25.73
2022-11-02T03:27:08.224Z,26.63
2022-11-02T03:29:41.520Z,30.48
2022-11-02T03:32:13.527Z,31.08
2022-11-02T03:34:42.784Z,27.63
2022-11-02T03:37:18.075Z,27.07
2022-11-02T03:39:46.664Z,26.02
2022-11-02T03:42:15.274Z,27.70
2022-11-02T03:44:41.317Z,27.27
2022-11-02T03:47:12.717Z,33.87
2022-11-02T03:49:38.830Z,25.33
2022-11-02T03:52:06.798Z,26.73
2022-11-02T03:54:44.538Z,27.80
2022-11-02T03:57:11.914Z,29.37
2022-11-02T03:59:36.709Z,25.17
2022-11-02T04:02:02.781Z,27.47
2022-11-02T04:04:28.807Z,27.10
2022-11-02T04:06:54.321Z,28.40
2022-11-02T04:09:18.946Z,24.92
2022-11-02T04:12:00.365Z,30.58
2022-11-02T04:14:41.415Z,23.15
2022-11-02T04:19:58.920Z,28.93
2022-11-02T04:22:41.229Z,25.13
2022-11-02T04:25:19.663Z,31.50
2022-11-02T04:28:10.478Z,26.38
2022-11-02T04:30:42.739Z,19.33
2022-11-02T04:33:23.450Z,23.60
2022-11-02T04:35:54.213Z,23.77
2022-11-02T04:38:36.012Z,24.48
2022-11-02T04:41:15.021Z,28.13
2022-11-02T04:43:40.528Z,23.37
2022-11-02T04:46:04.828Z,29.87
2022-11-02T04:48:29.771Z,21.53
2022-11-02T04:50:55.071Z,22.50
2022-11-02T04:53:18.698Z,23.58
2022-11-02T04:55:42.350Z,20.33
2022-11-02T04:58:06.700Z,18.23
2022-11-02T05:00:30.579Z,23.65
2022-11-02T05:02:54.994Z,21.83
2022-11-02T05:05:20.382Z,19.67
2022-11-02T05:07:47.792Z,17.17
2022-11-02T05:10:12.135Z,19.67
2022-11-02T05:12:36.500Z,19.27
2022-11-02T05:15:00.141Z,19.27
2022-11-02T05:17:23.933Z,28.33
2022-11-02T05:19:47.662Z,20.97
2022-11-02T05:22:11.425Z,24.50
2022-11-02T05:24:36.461Z,25.23
2022-11-02T05:27:02.162Z,20.80
2022-11-02T05:29:28.018Z,24.07
2022-11-02T05:31:51.620Z,22.40
2022-11-02T05:34:15.474Z,20.75
2022-11-02T05:36:39.270Z,26.23
2022-11-02T05:39:03.154Z,19.90
2022-11-02T05:41:29.383Z,20.07
2022-11-02T05:43:55.421Z,23.97
2022-11-02T05:46:20.692Z,23.80
2022-11-02T05:48:44.349Z,23.93
2022-11-02T05:51:08.428Z,19.87
2022-11-02T05:53:37.357Z,23.43
2022-11-02T05:56:02.044Z,19.35
2022-11-02T05:58:27.026Z,22.37
2022-11-02T06:00:50.621Z,17.63
2022-11-02T06:03:14.170Z,20.40
2022-11-02T06:05:37.864Z,19.33
2022-11-02T06:08:02.250Z,16.27
2022-11-02T06:10:25.893Z,14.38
2022-11-02T06:12:55.830Z,18.90
2022-11-02T06:15:20.975Z,18.67
2022-11-02T06:17:44.514Z,17.02
2022-11-02T06:20:10.453Z,14.00
2022-11-02T06:22:41.082Z,19.30
2022-11-02T06:25:04.856Z,17.70
2022-11-02T06:27:28.515Z,21.43
2022-11-02T06:29:52.180Z,15.45
2022-11-02T06:32:17.155Z,16.83
2022-11-02T06:34:40.877Z,22.40
2022-11-02T06:37:04.426Z,12.52
2022-11-02T06:39:28.037Z,16.40
2022-11-02T06:41:51.578Z,14.73
2022-11-02T06:44:15.168Z,22.10
2022-11-02T06:46:38.955Z,17.33
2022-11-02T06:49:04.046Z,20.80
2022-11-02T06:51:27.589Z,16.35
2022-11-02T06:53:51.246Z,16.83
2022-11-02T06:56:15.097Z,20.83
2022-11-02T06:58:38.737Z,24.77
2022-11-02T07:01:05.067Z,21.25
2022-11-02T07:03:29.477Z,18.40
2022-11-02T07:05:55.307Z,13.88
2022-11-02T07:08:18.930Z,23.75
2022-11-02T07:10:42.545Z,22.48
2022-11-02T07:13:06.561Z,20.42
2022-11-02T07:15:30.578Z,26.85
2022-11-02T07:17:54.781Z,18.75
2022-11-02T07:20:19.252Z,15.05
2022-11-02T07:22:45.208Z,22.08
2022-11-02T07:25:09.533Z,20.48
2022-11-02T07:27:33.102Z,18.08
2022-11-02T07:29:56.678Z,18.67
2022-11-02T07:32:20.322Z,21.90
2022-11-02T07:34:43.828Z,20.92
2022-11-02T07:37:07.472Z,19.40
2022-11-02T07:39:32.389Z,16.17
2022-11-02T07:41:55.984Z,15.68
2022-11-02T07:44:21.262Z,16.05
2022-11-02T07:46:50.729Z,18.23
2022-11-02T07:49:18.706Z,18.30
2022-11-02T07:51:44.793Z,17.33
2022-11-02T07:54:08.409Z,14.30
2022-11-02T07:56:33.376Z,17.42
2022-11-02T07:58:56.945Z,17.23
2022-11-02T08:01:20.730Z,14.38
2022-11-02T08:03:44.342Z,12.40
2022-11-02T08:06:08.571Z,17.67
2022-11-02T08:08:32.169Z,12.77
2022-11-02T08:10:55.901Z,13.88
2022-11-02T08:13:23.109Z,20.73
2022-11-02T08:15:49.711Z,18.13
2022-11-02T08:18:16.437Z,13.63
2022-11-02T08:20:40.189Z,14.43
2022-11-02T08:23:04.354Z,16.50
2022-11-02T08:25:28.541Z,16.33
2022-11-02T08:27:52.105Z,12.13
2022-11-02T08:30:17.297Z,9.30
2022-11-02T08:32:40.906Z,10.07
2022-11-02T08:35:05.180Z,12.18
2022-11-02T08:37:28.708Z,20.02
2022-11-02T08:39:52.349Z,10.68
2022-11-02T08:42:15.864Z,12.40
2022-11-02T08:44:42.479Z,14.18
2022-11-02T08:47:09.480Z,13.93
2022-11-02T08:49:33.434Z,13.88
2022-11-02T08:51:56.952Z,13.25
2022-11-02T08:54:20.570Z,12.18
2022-11-02T08:56:44.143Z,10.23
2022-11-02T08:59:07.974Z,9.45
2022-11-02T09:01:31.641Z,10.23
2022-11-02T09:03:56.699Z,17.42
2022-11-02T09:06:20.293Z,14.15
2022-11-02T09:08:43.940Z,10.70
2022-11-02T09:11:07.614Z,9.50
2022-11-02T09:13:31.834Z,9.65
2022-11-02T09:15:58.014Z,9.95
2022-11-02T09:18:22.207Z,10.15
2022-11-02T09:20:48.621Z,6.05
2022-11-02T09:23:12.290Z,10.00
2022-11-02T09:25:35.807Z,5.43
2022-11-02T09:27:59.979Z,9.10
2022-11-02T09:30:25.198Z,14.82
2022-11-02T09:32:56.238Z,11.20
2022-11-02T09:35:20.180Z,10.95
2022-11-02T09:37:50.857Z,8.48
2022-11-02T09:40:16.435Z,10.90
2022-11-02T09:42:54.802Z,7.55
2022-11-02T09:45:19.813Z,7.97
2022-11-02T09:48:16.458Z,6.53
2022-11-02T09:50:49.349Z,8.38
2022-11-02T09:53:20.993Z,6.78
2022-11-02T09:55:51.313Z,9.98
2022-11-02T09:58:22.108Z,9.48
2022-11-02T10:00:50.762Z,12.48
2022-11-02T10:03:29.864Z,7.78
2022-11-02T10:05:58.446Z,10.63
2022-11-02T10:08:40.978Z,9.55
2022-11-02T10:11:24.119Z,10.60
2022-11-02T10:13:56.664Z,9.82
2022-11-02T10:16:24.472Z,7.75
2022-11-02T10:18:50.523Z,7.43
2022-11-02T10:21:18.723Z,5.63
2022-11-02T10:23:50.408Z,7.97
2022-11-02T10:26:20.596Z,9.07
2022-11-02T10:28:50.093Z,6.82
2022-11-02T10:31:25.261Z,10.77
2022-11-02T10:33:50.732Z,8.90
2022-11-02T10:36:31.454Z,8.95
2022-11-02T10:39:14.141Z,8.55
2022-11-02T10:41:56.599Z,10.27
2022-11-02T10:44:40.284Z,9.65
2022-11-02T10:47:14.582Z,7.00
2022-11-02T10:50:12.711Z,6.75
2022-11-02T10:52:39.055Z,9.25
2022-11-02T10:55:04.325Z,10.57
2022-11-02T10:57:29.291Z,11.55
2022-11-02T11:00:28.169Z,15.13
2022-11-02T11:03:14.823Z,8.60
2022-11-02T11:05:57.000Z,9.02
2022-11-02T11:08:38.873Z,13.10
2022-11-02T11:11:30.041Z,6.65
2022-11-02T11:16:50.230Z,6.97
2022-11-02T11:19:38.598Z,11.15
2022-11-02T11:22:03.578Z,10.27
2022-11-02T11:24:30.739Z,16.42
2022-11-02T11:27:19.502Z,8.75
2022-11-02T11:29:49.923Z,7.70
2022-11-02T11:32:18.564Z,8.10
2022-11-02T11:34:42.617Z,11.68
2022-11-02T11:37:10.018Z,7.10
2022-11-02T11:39:34.603Z,12.02
2022-11-02T11:41:59.354Z,12.45
2022-11-02T11:44:24.797Z,9.70
2022-11-02T11:46:50.989Z,9.57
2022-11-02T11:49:35.837Z,7.88
2022-11-02T11:52:07.289Z,10.25
2022-11-02T11:54:31.712Z,12.32
2022-11-02T11:56:57.857Z,10.77
2022-11-02T11:59:32.254Z,9.93
2022-11-02T12:01:59.505Z,8.52
2022-11-02T12:04:35.650Z,8.15
2022-11-02T12:07:27.046Z,11.57
2022-11-02T12:10:04.378Z,8.57
2022-11-02T12:12:44.769Z,10.30
2022-11-02T12:15:27.605Z,8.18
2022-11-02T12:18:13.479Z,9.27
2022-11-02T12:20:54.836Z,9.38
2022-11-02T12:23:37.641Z,10.43
2022-11-02T12:26:19.301Z,10.23
2022-11-02T12:28:51.621Z,7.43
2022-11-02T12:31:31.647Z,8.80
2022-11-02T12:34:17.810Z,9.32
2022-11-02T12:37:31.684Z,6.88
2022-11-02T12:39:57.842Z,8.93
2022-11-02T12:42:29.446Z,8.93
2022-11-02T12:45:23.177Z,5.72
2022-11-02T12:47:59.134Z,9.02
2022-11-02T12:50:38.227Z,6.88
2022-11-02T12:53:22.625Z,7.40
2022-11-02T12:55:51.425Z,6.57
2022-11-02T12:58:22.584Z,7.75
2022-11-02T13:00:49.561Z,6.53
2022-11-02T13:03:31.812Z,4.00
2022-11-02T13:06:04.959Z,7.63
2022-11-02T13:08:37.888Z,6.40
2022-11-02T13:11:08.634Z,4.40
2022-11-02T13:13:39.969Z,4.15
2022-11-02T13:16:06.574Z,6.00
2022-11-02T13:18:39.951Z,6.47
2022-11-02T13:21:06.138Z,6.43
2022-11-02T13:23:37.852Z,5.97
2022-11-02T13:26:06.498Z,11.38
2022-11-02T13:28:38.256Z,11.88
2022-11-02T13:31:06.338Z,4.97
2022-11-02T13:33:45.875Z,4.82
2022-11-02T13:36:10.390Z,6.55
2022-11-02T13:38:41.407Z,6.80
2022-11-02T13:41:33.014Z,6.22
2022-11-02T13:44:53.381Z,7.35
2022-11-02T13:47:58.403Z,4.68
2022-11-02T13:50:26.920Z,5.78
2022-11-02T13:52:58.506Z,5.93
2022-11-02T13:55:27.157Z,8.07
2022-11-02T13:57:56.931Z,4.63
2022-11-02T14:00:37.573Z,8.55
2022-11-02T14:03:09.305Z,10.57
2022-11-02T14:05:37.281Z,7.13
2022-11-02T14:08:03.488Z,7.28
2022-11-02T14:10:27.519Z,6.97
2022-11-02T14:12:52.055Z,4.97
2022-11-02T14:15:53.886Z,6.65
2022-11-02T14:18:33.421Z,9.25
2022-11-02T14:20:58.964Z,7.30
2022-11-02T14:23:41.700Z,6.60
2022-11-02T14:26:05.541Z,8.98
2022-11-02T14:28:34.728Z,8.13
2022-11-02T14:31:17.682Z,11.10
2022-11-02T14:34:27.683Z,10.40
2022-11-02T14:37:11.694Z,4.70
2022-11-02T14:39:48.187Z,9.18
2022-11-02T14:42:41.425Z,17.42
2022-11-02T14:45:24.333Z,9.80
2022-11-02T14:47:48.030Z,6.75
2022-11-02T14:50:18.841Z,8.95
2022-11-02T14:52:56.786Z,7.57
2022-11-02T14:55:25.901Z,3.95
2022-11-02T14:57:56.324Z,4.57
2022-11-02T15:00:22.944Z,8.82
2022-11-02T15:02:47.220Z,4.30
2022-11-02T15:05:24.893Z,7.93
2022-11-02T15:07:54.752Z,6.22
2022-11-02T15:10:53.622Z,6.25
2022-11-02T15:13:38.317Z,9.35
2022-11-02T15:16:25.339Z,7.55
2022-11-02T15:18:49.268Z,6.10
2022-11-02T15:21:31.445Z,7.03
2022-11-02T15:24:16.588Z,6.40
2022-11-02T15:26:48.811Z,6.18
2022-11-02T15:29:23.844Z,10.93
2022-11-02T15:31:54.744Z,18.02
2022-11-02T15:34:20.709Z,6.72
2022-11-02T15:36:45.750Z,22.10
2022-11-02T15:39:13.638Z,14.68
2022-11-02T15:41:45.242Z,164.73
2022-11-02T15:44:49.142Z,44.78
2022-11-02T15:47:27.392Z,15.15
2022-11-02T15:50:20.078Z,10.43
2022-11-02T15:53:21.764Z,29.13
2022-11-02T15:55:55.106Z,48.55
2022-11-02T15:58:33.385Z,92.65
2022-11-02T16:01:15.215Z,31.02
2022-11-02T16:03:39.235Z,54.65
2022-11-02T16:06:06.011Z,52.72
2022-11-02T16:08:35.042Z,15.52
2022-11-02T16:11:13.837Z,16.13
2022-11-02T16:13:55.701Z,19.00
2022-11-02T16:16:22.075Z,15.35
2022-11-02T16:18:50.982Z,11.27
2022-11-02T16:21:17.371Z,12.68
2022-11-02T16:23:44.261Z,14.68
2022-11-02T16:26:19.645Z,20.08
2022-11-02T16:28:43.327Z,20.65
2022-11-02T16:31:19.020Z,16.08
2022-11-02T16:33:45.794Z,58.45
2022-11-02T16:36:12.073Z,16.23
2022-11-02T16:38:37.497Z,19.25
2022-11-02T16:41:02.584Z,17.40
2022-11-02T16:43:28.317Z,8.52
2022-11-02T16:45:52.337Z,16.05
2022-11-02T16:48:22.869Z,9.65
2022-11-02T16:51:03.136Z,11.50
2022-11-02T16:53:30.251Z,11.80
2022-11-02T16:55:59.409Z,6.57
2022-11-02T16:58:26.933Z,13.68
2022-11-02T17:00:59.293Z,17.10
2022-11-02T17:03:27.794Z,11.60
2022-11-02T17:05:52.356Z,10.63
2022-11-02T17:08:30.001Z,9.07
2022-11-02T17:10:57.208Z,16.92
2022-11-02T17:13:22.174Z,13.45
2022-11-02T17:15:50.554Z,20.23
2022-11-02T17:18:26.978Z,14.43
2022-11-02T17:21:32.123Z,11.27
2022-11-02T17:23:58.197Z,20.90
2022-11-02T17:26:45.466Z,13.50
2022-11-02T17:29:34.904Z,13.68
2022-11-02T17:32:01.548Z,9.13
2022-11-02T17:34:25.410Z,11.45
2022-11-02T17:36:50.877Z,19.85
2022-11-02T17:39:16.269Z,13.35
2022-11-02T17:41:57.409Z,13.07
2022-11-02T17:44:20.952Z,13.05
2022-11-02T17:46:46.088Z,14.57
2022-11-02T17:49:11.315Z,8.60
2022-11-02T17:51:34.949Z,13.20
2022-11-02T17:53:58.551Z,10.85
2022-11-02T17:56:22.189Z,12.20
2022-11-02T17:58:45.786Z,12.93
2022-11-02T18:01:13.414Z,14.43
2022-11-02T18:03:37.142Z,8.23
2022-11-02T18:06:02.109Z,29.65
2022-11-02T18:08:25.744Z,14.60
2022-11-02T18:10:52.085Z,18.60
2022-11-02T18:13:17.434Z,17.00
2022-11-02T18:15:41.422Z,29.55
2022-11-02T18:18:05.262Z,10.98
2022-11-02T18:20:31.287Z,20.52
2022-11-02T18:22:57.084Z,13.02
2022-11-02T18:27:49.792Z,65.55
2022-11-02T18:30:16.511Z,29.80
2022-11-02T18:32:40.613Z,34.92
2022-11-02T18:35:04.483Z,14.60
2022-11-02T18:37:28.666Z,15.55
2022-11-02T18:39:53.616Z,11.95
2022-11-02T18:42:17.207Z,16.55
2022-11-02T18:44:40.866Z,13.98
2022-11-02T18:47:04.711Z,15.88
2022-11-02T18:49:28.377Z,14.93
2022-11-02T18:51:52.088Z,18.02
2022-11-02T18:54:16.961Z,15.88
2022-11-02T18:56:42.049Z,16.85
2022-11-02T18:59:06.129Z,16.55
2022-11-02T19:01:30.109Z,16.13
2022-11-02T19:03:55.904Z,10.30
2022-11-02T19:06:38.245Z,18.40
2022-11-02T19:09:20.165Z,18.30
2022-11-02T19:11:46.662Z,13.38
2022-11-02T19:14:10.189Z,17.15
2022-11-02T19:16:33.837Z,14.30
2022-11-02T19:18:57.433Z,10.00
2022-11-02T19:21:21.389Z,13.65
2022-11-02T19:23:45.198Z,12.60
2022-11-02T19:26:09.322Z,11.70
2022-11-02T19:28:34.881Z,17.30
2022-11-02T19:30:58.521Z,15.05
2022-11-02T19:33:22.131Z,11.95
2022-11-02T19:35:55.616Z,18.10
2022-11-02T19:38:19.181Z,14.20
2022-11-02T19:40:42.712Z,11.65
2022-11-02T19:43:06.629Z,13.25
2022-11-02T19:45:31.756Z,15.20
2022-11-02T19:47:55.320Z,16.67
2022-11-02T19:50:18.969Z,16.80
2022-11-02T19:52:42.541Z,16.25
2022-11-02T19:55:07.302Z,15.27
2022-11-02T19:57:33.311Z,15.50
2022-11-02T19:59:57.119Z,17.13
2022-11-02T20:02:22.097Z,14.00
2022-11-02T20:04:47.116Z,20.55
2022-11-02T20:07:10.698Z,16.15
2022-11-02T20:09:34.245Z,21.90
2022-11-02T20:11:59.219Z,18.55
2022-11-02T20:14:22.778Z,13.95
2022-11-02T20:16:58.270Z,15.05
2022-11-02T20:19:24.013Z,22.55
2022-11-02T20:21:47.550Z,17.58
2022-11-02T20:24:11.935Z,20.02
2022-11-02T20:26:38.513Z,20.08
2022-11-02T20:29:04.118Z,18.10
2022-11-02T20:31:30.152Z,23.83
2022-11-02T20:33:54.458Z,24.40
2022-11-02T20:36:19.400Z,19.10
2022-11-02T20:38:43.169Z,19.40
2022-11-02T20:41:09.631Z,23.20
2022-11-02T20:43:33.311Z,20.75
2022-11-02T20:46:35.454Z,20.65
2022-11-02T20:48:50.279Z,19.25
2022-11-02T20:51:15.208Z,21.07
2022-11-02T20:53:40.741Z,26.77
2022-11-02T20:56:04.670Z,21.67
2022-11-02T20:58:28.605Z,23.08
2022-11-02T21:00:52.932Z,21.95
2022-11-02T21:03:16.829Z,20.33
2022-11-02T21:05:40.778Z,21.45
2022-11-02T21:08:04.413Z,22.17
2022-11-02T21:10:29.593Z,19.57
2022-11-02T21:13:10.357Z,18.83
2022-11-02T21:15:36.170Z,21.37
2022-11-02T21:18:01.778Z,19.90
2022-11-02T21:20:40.720Z,25.85
2022-11-02T21:23:05.736Z,26.17
2022-11-02T21:25:31.818Z,21.73
2022-11-02T21:27:55.684Z,23.97
2022-11-02T21:30:20.313Z,30.13
2022-11-02T21:32:44.079Z,30.70
2022-11-02T21:35:08.838Z,28.67
2022-11-02T21:37:32.436Z,30.43
2022-11-02T21:39:55.995Z,27.23
2022-11-02T21:42:20.938Z,29.83
2022-11-02T21:44:44.433Z,22.63
2022-11-02T21:47:08.854Z,24.57
2022-11-02T21:49:32.337Z,26.13
2022-11-02T21:51:56.154Z,18.45
2022-11-02T21:54:19.738Z,22.10
2022-11-02T21:56:43.305Z,19.23
2022-11-02T21:59:09.486Z,20.13
2022-11-02T22:01:47.220Z,19.87
2022-11-02T22:04:12.453Z,31.87
2022-11-02T22:06:37.630Z,20.20
2022-11-02T22:09:02.042Z,23.63
2022-11-02T22:11:28.251Z,28.53
2022-11-02T22:13:53.522Z,23.97
2022-11-02T22:16:20.935Z,22.13
2022-11-02T22:18:45.899Z,24.50
2022-11-02T22:21:09.597Z,23.17
2022-11-02T22:23:33.422Z,21.00
2022-11-02T22:26:00.972Z,29.50
2022-11-02T22:28:24.885Z,22.40
2022-11-02T22:30:48.444Z,20.93
2022-11-02T22:33:13.393Z,20.57
2022-11-02T22:35:38.067Z,29.93
2022-11-02T22:38:18.982Z,27.57
2022-11-02T22:40:42.574Z,22.23
2022-11-02T22:43:06.473Z,20.77
2022-11-02T22:45:30.235Z,29.10
2022-11-02T22:47:53.936Z,23.30
2022-11-02T22:50:21.413Z,26.37
2022-11-02T22:52:47.354Z,23.37
2022-11-02T22:55:11.630Z,26.33
2022-11-02T22:57:35.170Z,23.40
2022-11-02T22:59:58.747Z,26.50
2022-11-02T23:02:22.385Z,27.27
2022-11-02T23:04:45.933Z,20.93
2022-11-02T23:07:11.022Z,24.87
2022-11-02T23:09:34.577Z,27.87
2022-11-02T23:11:57.173Z,30.93
2022-11-02T23:14:21.184Z,27.70
2022-11-02T23:16:47.169Z,28.10
2022-11-02T23:19:28.551Z,25.23
2022-11-02T23:22:09.653Z,30.33
2022-11-02T23:24:52.068Z,30.33
2022-11-02T23:27:15.664Z,34.13
2022-11-02T23:29:56.389Z,30.20
2022-11-02T23:32:27.195Z,38.10
2022-11-02T23:35:08.082Z,32.13
2022-11-02T23:37:32.221Z,29.00
2022-11-02T23:39:57.128Z,26.67
2022-11-02T23:42:20.772Z,33.50
2022-11-02T23:44:44.374Z,27.23
2022-11-02T23:47:07.989Z,35.77
2022-11-02T23:49:31.566Z,31.67
2022-11-02T23:52:12.424Z,32.47
2022-11-02T23:54:53.268Z,34.57
2022-11-02T23:57:18.687Z,29.03
2022-11-02T23:59:42.272Z,30.90
